createdAt,value
2023-08-07T00:00:09.563Z,14.3
2023-08-07T00:03:09.933Z,14.3
2023-08-07T00:06:09.434Z,14.3
2023-08-07T00:09:09.728Z,14.2
2023-08-07T00:12:09.542Z,14.2
2023-08-07T00:15:09.417Z,14.3
2023-08-07T00:18:09.579Z,14.3
2023-08-07T00:21:09.540Z,14.3
2023-08-07T00:24:09.515Z,14.3
2023-08-07T00:27:09.447Z,14.3
2023-08-07T00:30:09.490Z,14.3
2023-08-07T00:33:09.654Z,14.3
2023-08-07T00:36:09.542Z,14.3
2023-08-07T00:39:09.594Z,14.3
2023-08-07T00:42:09.641Z,14.4
2023-08-07T00:45:09.776Z,14.4
2023-08-07T00:48:09.666Z,14.4
2023-08-07T00:51:09.454Z,14.4
2023-08-07T00:54:09.469Z,14.4
2023-08-07T00:57:09.366Z,14.4
2023-08-07T01:00:09.529Z,14.4
2023-08-07T01:03:10.448Z,14.4
2023-08-07T01:06:09.459Z,14.4
2023-08-07T01:09:09.431Z,14.4
2023-08-07T01:12:09.388Z,14.4
2023-08-07T01:15:09.449Z,14.3
2023-08-07T01:18:09.728Z,14.3
2023-08-07T01:21:09.481Z,14.3
2023-08-07T01:24:09.465Z,14.3
2023-08-07T01:27:09.428Z,14.3
2023-08-07T01:30:09.966Z,14.3
2023-08-07T01:33:09.774Z,14.3
2023-08-07T01:36:09.620Z,14.3
2023-08-07T01:39:09.440Z,14.3
2023-08-07T01:42:09.388Z,14.2
2023-08-07T01:45:09.461Z,14.2
2023-08-07T01:48:09.950Z,14.1
2023-08-07T01:51:09.504Z,14.1
2023-08-07T01:54:09.471Z,14.1
2023-08-07T01:57:09.547Z,14
2023-08-07T02:00:09.526Z,14
2023-08-07T02:03:10.143Z,14.1
2023-08-07T02:06:09.431Z,14.1
2023-08-07T02:09:09.466Z,14.1
2023-08-07T02:12:09.680Z,14.1
2023-08-07T02:15:09.728Z,14.1
2023-08-07T02:18:09.678Z,14.1
2023-08-07T02:21:09.425Z,14.1
2023-08-07T02:24:09.505Z,14.1
2023-08-07T02:27:09.523Z,14.1
2023-08-07T02:30:09.438Z,14.1
2023-08-07T02:33:09.533Z,14.1
2023-08-07T02:36:09.423Z,14.1
2023-08-07T02:39:09.404Z,14.1
2023-08-07T02:42:09.610Z,14.1
2023-08-07T02:45:09.492Z,14.1
2023-08-07T02:48:09.577Z,14.1
2023-08-07T02:51:09.528Z,14.1
2023-08-07T02:54:09.387Z,14.2
2023-08-07T02:57:09.489Z,14.1
2023-08-07T03:00:09.592Z,14.1
2023-08-07T03:03:09.593Z,14.1
2023-08-07T03:06:09.405Z,14.1
2023-08-07T03:09:09.391Z,14.1
2023-08-07T03:12:09.731Z,14.1
2023-08-07T03:15:09.540Z,14.1
2023-08-07T03:18:09.657Z,14.1
2023-08-07T03:21:09.523Z,14.1
2023-08-07T03:24:11.159Z,14.1
2023-08-07T03:27:09.429Z,14.1
2023-08-07T03:30:09.576Z,14.1
2023-08-07T03:33:09.737Z,14
2023-08-07T03:36:09.492Z,14
2023-08-07T03:39:09.412Z,14
2023-08-07T03:42:09.580Z,14
2023-08-07T03:45:09.448Z,14
2023-08-07T03:48:09.697Z,14
2023-08-07T03:51:09.744Z,14
2023-08-07T03:54:09.617Z,14.1
2023-08-07T03:57:09.691Z,14
2023-08-07T04:00:09.508Z,14
2023-08-07T04:03:12.586Z,14.1
2023-08-07T04:06:09.634Z,14
2023-08-07T04:09:09.520Z,14.1
2023-08-07T04:12:09.538Z,14
2023-08-07T04:15:09.518Z,14
2023-08-07T04:18:09.652Z,14
2023-08-07T04:21:09.551Z,14
2023-08-07T04:24:09.509Z,14
2023-08-07T04:27:09.542Z,14.1
2023-08-07T04:30:09.557Z,14.1
2023-08-07T04:33:09.947Z,14.1
2023-08-07T04:36:09.473Z,14.1
2023-08-07T04:39:09.683Z,14.1
2023-08-07T04:42:09.502Z,14.1
2023-08-07T04:45:09.669Z,14.1
2023-08-07T04:48:09.762Z,14.1
2023-08-07T04:51:09.473Z,14.1
2023-08-07T04:54:09.497Z,14.2
2023-08-07T04:57:09.461Z,14.2
2023-08-07T05:00:09.614Z,14.2
2023-08-07T05:03:10.684Z,14.3
2023-08-07T05:06:12.567Z,14.3
2023-08-07T05:09:09.468Z,14.3
2023-08-07T05:12:09.552Z,14.2
2023-08-07T05:15:09.468Z,14.2
2023-08-07T05:18:09.656Z,14.2
2023-08-07T05:21:09.425Z,14.2
2023-08-07T05:24:09.535Z,14.3
2023-08-07T05:27:09.500Z,14.3
2023-08-07T05:30:09.825Z,14.3
2023-08-07T05:33:09.867Z,14.3
2023-08-07T05:36:09.502Z,14.3
2023-08-07T05:39:09.538Z,14.3
2023-08-07T05:42:09.637Z,14.4
2023-08-07T05:45:09.512Z,14.4
2023-08-07T05:48:09.792Z,14.4
2023-08-07T05:51:09.435Z,14.4
2023-08-07T05:54:09.460Z,14.4
2023-08-07T05:57:09.447Z,14.5
2023-08-07T06:00:09.596Z,14.5
2023-08-07T06:03:09.893Z,14.6
2023-08-07T06:06:09.514Z,14.6
2023-08-07T06:09:10.205Z,14.6
2023-08-07T06:12:09.554Z,14.6
2023-08-07T06:15:09.573Z,14.7
2023-08-07T06:18:09.822Z,14.7
2023-08-07T06:21:09.426Z,14.7
2023-08-07T06:24:09.467Z,14.7
2023-08-07T06:27:09.454Z,14.7
2023-08-07T06:30:09.798Z,14.8
2023-08-07T06:33:11.696Z,14.8
2023-08-07T06:36:09.548Z,14.9
2023-08-07T06:39:09.511Z,14.9
2023-08-07T06:42:09.499Z,14.9
2023-08-07T06:45:09.545Z,14.9
2023-08-07T06:48:09.603Z,15
2023-08-07T06:51:09.469Z,14.9
2023-08-07T06:54:09.524Z,14.9
2023-08-07T06:57:09.439Z,15.1
2023-08-07T07:00:09.641Z,15.3
2023-08-07T07:03:09.732Z,15.4
2023-08-07T07:06:09.509Z,15.4
2023-08-07T07:09:09.524Z,15.4
2023-08-07T07:12:09.530Z,15.3
2023-08-07T07:15:09.662Z,15.2
2023-08-07T07:18:09.685Z,15.2
2023-08-07T07:21:09.490Z,15.2
2023-08-07T07:24:09.520Z,15.3
2023-08-07T07:27:09.445Z,15.3
2023-08-07T07:30:09.556Z,15.5
2023-08-07T07:33:09.549Z,15.6
2023-08-07T07:36:09.487Z,15.8
2023-08-07T07:39:09.547Z,15.8
2023-08-07T07:42:09.542Z,15.8
2023-08-07T07:45:09.518Z,15.8
2023-08-07T07:48:09.730Z,16
2023-08-07T07:51:12.825Z,16.3
2023-08-07T07:54:24.025Z,16.6
2023-08-07T07:57:10.181Z,16.6
2023-08-07T08:00:09.550Z,16.7
2023-08-07T08:03:10.100Z,16.7
2023-08-07T08:06:09.718Z,16.6
2023-08-07T08:09:09.865Z,16.6
2023-08-07T08:12:11.002Z,16.6
2023-08-07T08:15:09.772Z,16.6
2023-08-07T08:18:09.983Z,16.6
2023-08-07T08:21:09.500Z,16.6
2023-08-07T08:24:09.496Z,16.8
2023-08-07T08:27:12.218Z,17.2
2023-08-07T08:30:10.621Z,17.9
2023-08-07T08:33:09.816Z,18
2023-08-07T08:36:09.565Z,17.6
2023-08-07T08:39:12.386Z,17.6
2023-08-07T08:42:10.117Z,17.5
2023-08-07T08:45:09.557Z,17.8
2023-08-07T08:48:09.835Z,18.2
2023-08-07T08:51:09.533Z,18.4
2023-08-07T08:54:09.491Z,18.6
2023-08-07T08:57:10.937Z,18.7
2023-08-07T09:00:09.656Z,19.2
2023-08-07T09:03:10.462Z,19.9
2023-08-07T09:06:09.574Z,19.8
2023-08-07T09:09:09.483Z,19.3
2023-08-07T09:12:10.646Z,18.7
2023-08-07T09:15:09.472Z,18.3
2023-08-07T09:18:09.718Z,18.3
2023-08-07T09:21:09.466Z,18.1
2023-08-07T09:24:09.630Z,18.3
2023-08-07T09:27:10.430Z,18.2
2023-08-07T09:30:09.564Z,17.9
2023-08-07T09:33:10.029Z,17.8
2023-08-07T09:36:09.576Z,17.6
2023-08-07T09:39:09.460Z,18.2
2023-08-07T09:42:11.027Z,19.3
2023-08-07T09:45:09.635Z,19.8
2023-08-07T09:48:09.914Z,20.3
2023-08-07T09:51:09.504Z,19.6
2023-08-07T09:54:09.485Z,18.9
2023-08-07T09:57:10.990Z,17.8
2023-08-07T10:00:09.605Z,16.8
2023-08-07T10:03:10.140Z,15.9
2023-08-07T10:06:09.563Z,15.4
2023-08-07T10:09:09.593Z,15.1
2023-08-07T10:12:10.371Z,14.8
2023-08-07T10:15:09.567Z,14.7
2023-08-07T10:18:09.781Z,14.6
2023-08-07T10:21:09.445Z,14.7
2023-08-07T10:24:09.503Z,14.7
2023-08-07T10:27:13.110Z,14.8
2023-08-07T10:30:09.644Z,14.9
2023-08-07T10:33:09.994Z,15.3
2023-08-07T10:36:09.867Z,16.8
2023-08-07T10:39:09.683Z,17.9
2023-08-07T10:42:13.178Z,18.4
2023-08-07T10:45:09.547Z,19.1
2023-08-07T10:48:10.103Z,19.1
2023-08-07T10:51:09.615Z,18.4
2023-08-07T10:54:09.551Z,17.3
2023-08-07T10:57:11.633Z,16.4
2023-08-07T11:00:09.539Z,16.1
2023-08-07T11:03:09.817Z,16
2023-08-07T11:06:09.523Z,16.2
2023-08-07T11:09:09.639Z,16.3
2023-08-07T11:12:10.444Z,16.2
2023-08-07T11:15:09.560Z,16.3
2023-08-07T11:18:09.618Z,17.4
2023-08-07T11:21:09.470Z,17.9
2023-08-07T11:24:09.497Z,17.4
2023-08-07T11:27:14.296Z,16.9
2023-08-07T11:30:09.555Z,17.1
2023-08-07T11:33:10.718Z,17.3
2023-08-07T11:36:09.571Z,17
2023-08-07T11:39:09.521Z,16.5
2023-08-07T11:42:10.802Z,16.3
2023-08-07T11:45:09.507Z,16.4
2023-08-07T11:48:09.722Z,16.3
2023-08-07T11:51:09.586Z,16.2
2023-08-07T11:54:09.513Z,16.3
2023-08-07T11:57:10.780Z,16.6
2023-08-07T12:00:09.582Z,17
2023-08-07T12:03:09.725Z,17.2
2023-08-07T12:06:09.389Z,17.1
2023-08-07T12:09:09.476Z,16.8
2023-08-07T12:12:11.065Z,16.6
2023-08-07T12:15:09.440Z,16.3
2023-08-07T12:18:09.697Z,16
2023-08-07T12:21:09.525Z,15.8
2023-08-07T12:24:09.542Z,15.8
2023-08-07T12:27:09.923Z,15.6
2023-08-07T12:30:09.608Z,15.2
2023-08-07T12:33:09.734Z,14.9
2023-08-07T12:36:22.825Z,14.9
2023-08-07T12:39:09.615Z,15.1
2023-08-07T12:45:09.553Z,14.9
2023-08-07T12:48:09.971Z,14.8
2023-08-07T12:51:09.468Z,15.1
2023-08-07T12:54:09.542Z,15.3
2023-08-07T12:57:09.634Z,15.6
2023-08-07T13:00:09.714Z,16.1
2023-08-07T13:03:09.940Z,16.6
2023-08-07T13:06:09.667Z,16.8
2023-08-07T13:09:09.592Z,17.1
2023-08-07T13:12:10.377Z,17.2
2023-08-07T13:15:09.898Z,17
2023-08-07T13:18:09.614Z,16.6
2023-08-07T13:21:09.670Z,16.2
2023-08-07T13:24:09.397Z,16
2023-08-07T13:27:09.591Z,15.6
2023-08-07T13:30:09.578Z,14.9
2023-08-07T13:33:09.921Z,14.6
2023-08-07T13:36:09.398Z,14.8
2023-08-07T13:39:09.532Z,15.2
2023-08-07T13:42:09.562Z,15.6
2023-08-07T13:45:09.477Z,16
2023-08-07T13:48:10.241Z,16.5
2023-08-07T13:51:09.522Z,17.1
2023-08-07T13:54:09.562Z,17.4
2023-08-07T13:57:09.538Z,17.7
2023-08-07T14:00:09.698Z,17.7
2023-08-07T14:03:09.987Z,17.9
2023-08-07T14:06:09.530Z,17.9
2023-08-07T14:09:09.479Z,17.8
2023-08-07T14:12:09.785Z,17.6
2023-08-07T14:15:09.572Z,17.3
2023-08-07T14:18:09.715Z,17.1
2023-08-07T14:21:12.476Z,16.9
2023-08-07T14:24:09.648Z,17.2
2023-08-07T14:27:10.823Z,17.6
2023-08-07T14:30:09.576Z,17.8
2023-08-07T14:33:09.641Z,18.1
2023-08-07T14:36:09.515Z,18.2
2023-08-07T14:39:09.518Z,18.1
2023-08-07T14:42:11.046Z,18.1
2023-08-07T14:45:09.557Z,18.4
2023-08-07T14:48:09.921Z,18.8
2023-08-07T14:51:09.487Z,18.8
2023-08-07T14:54:09.512Z,18.7
2023-08-07T14:57:10.766Z,18.6
2023-08-07T15:00:09.630Z,18.5
2023-08-07T15:03:09.687Z,18.4
2023-08-07T15:06:09.578Z,18.2
2023-08-07T15:09:09.511Z,18.3
2023-08-07T15:12:12.313Z,18.3
2023-08-07T15:15:09.500Z,18.3
2023-08-07T15:18:09.970Z,18.4
2023-08-07T15:21:09.506Z,18.6
2023-08-07T15:24:09.674Z,18.5
2023-08-07T15:27:11.523Z,18
2023-08-07T15:30:09.584Z,17.8
2023-08-07T15:33:09.841Z,18.2
2023-08-07T15:36:09.797Z,18.2
2023-08-07T15:39:09.484Z,18.2
2023-08-07T15:42:10.617Z,18
2023-08-07T15:45:09.486Z,17.8
2023-08-07T15:48:09.916Z,17.7
2023-08-07T15:51:10.209Z,17.7
2023-08-07T15:54:09.516Z,17.6
2023-08-07T15:57:10.858Z,17.4
2023-08-07T16:00:09.604Z,17.3
2023-08-07T16:03:09.580Z,17.3
2023-08-07T16:06:09.462Z,17.3
2023-08-07T16:09:09.562Z,17.3
2023-08-07T16:12:10.688Z,17.2
2023-08-07T16:15:09.686Z,17.1
2023-08-07T16:18:09.568Z,16.9
2023-08-07T16:21:09.585Z,16.9
2023-08-07T16:24:09.545Z,17
2023-08-07T16:27:11.361Z,17.1
2023-08-07T16:30:09.660Z,17.1
2023-08-07T16:33:10.140Z,17.1
2023-08-07T16:36:09.488Z,17.1
2023-08-07T16:39:09.471Z,17
2023-08-07T16:42:10.076Z,16.9
2023-08-07T16:45:09.515Z,16.8
2023-08-07T16:48:09.729Z,16.7
2023-08-07T16:51:24.975Z,16.5
2023-08-07T16:54:09.429Z,16.3
2023-08-07T16:57:10.826Z,16.3
2023-08-07T17:00:09.608Z,16.3
2023-08-07T17:03:10.041Z,16.4
2023-08-07T17:06:10.242Z,16.4
2023-08-07T17:09:09.488Z,16.4
2023-08-07T17:12:10.798Z,16.3
2023-08-07T17:15:09.438Z,16.1
2023-08-07T17:18:09.631Z,15.9
2023-08-07T17:21:09.450Z,15.9
2023-08-07T17:24:09.478Z,15.9
2023-08-07T17:27:10.910Z,16.1
2023-08-07T17:30:09.502Z,16.2
2023-08-07T17:33:09.968Z,16.2
2023-08-07T17:36:09.566Z,16.1
2023-08-07T17:39:11.607Z,16
2023-08-07T17:42:10.478Z,15.9
2023-08-07T17:45:09.435Z,15.8
2023-08-07T17:48:09.852Z,15.8
2023-08-07T17:51:09.441Z,15.6
2023-08-07T17:54:09.499Z,15.6
2023-08-07T17:57:10.955Z,15.4
2023-08-07T18:00:09.643Z,14.5
2023-08-07T18:03:09.852Z,13.8
2023-08-07T18:06:10.651Z,13.3
2023-08-07T18:09:09.501Z,13.2
2023-08-07T18:12:10.890Z,13.1
2023-08-07T18:15:09.465Z,12.9
2023-08-07T18:18:09.794Z,13
2023-08-07T18:21:09.453Z,12.9
2023-08-07T18:24:09.566Z,12.8
2023-08-07T18:27:26.100Z,12.8
2023-08-07T18:30:09.542Z,12.8
2023-08-07T18:33:09.918Z,12.8
2023-08-07T18:36:09.952Z,12.9
2023-08-07T18:39:09.499Z,12.9
2023-08-07T18:42:09.539Z,12.8
2023-08-07T18:45:09.546Z,12.7
2023-08-07T18:48:09.703Z,12.6
2023-08-07T18:51:09.442Z,12.6
2023-08-07T18:54:09.626Z,12.6
2023-08-07T18:57:14.814Z,12.6
2023-08-07T19:00:09.616Z,12.7
2023-08-07T19:03:10.165Z,12.8
2023-08-07T19:06:09.475Z,12.8
2023-08-07T19:09:09.515Z,12.7
2023-08-07T19:12:09.493Z,12.8
2023-08-07T19:15:09.587Z,12.9
2023-08-07T19:18:09.910Z,13
2023-08-07T19:21:09.504Z,13.1
2023-08-07T19:24:12.215Z,13.1
2023-08-07T19:27:10.298Z,13.1
2023-08-07T19:30:09.503Z,13
2023-08-07T19:33:09.765Z,12.9
2023-08-07T19:36:09.528Z,12.8
2023-08-07T19:39:09.422Z,12.6
2023-08-07T19:42:09.429Z,12.5
2023-08-07T19:45:09.462Z,12.4
2023-08-07T19:48:09.722Z,12.4
2023-08-07T19:51:09.477Z,12.4
2023-08-07T19:54:11.544Z,12.4
2023-08-07T19:57:09.520Z,12.4
2023-08-07T20:00:09.540Z,12.4
2023-08-07T20:03:09.692Z,12.2
2023-08-07T20:06:09.433Z,12.3
2023-08-07T20:09:09.420Z,12.3
2023-08-07T20:12:10.433Z,12.3
2023-08-07T20:15:09.821Z,12.2
2023-08-07T20:18:09.786Z,12.3
2023-08-07T20:21:09.372Z,12.3
2023-08-07T20:24:09.551Z,12.4
2023-08-07T20:27:09.462Z,12.4
2023-08-07T20:30:09.460Z,12.4
2023-08-07T20:33:09.800Z,12.4
2023-08-07T20:36:09.430Z,12.4
2023-08-07T20:39:09.481Z,12.4
2023-08-07T20:42:10.349Z,12.3
2023-08-07T20:45:09.475Z,12.3
2023-08-07T20:48:10.020Z,12.4
2023-08-07T20:51:09.442Z,12.4
2023-08-07T20:54:09.444Z,12.4
2023-08-07T20:57:09.425Z,12.4
2023-08-07T21:00:09.448Z,12.4
2023-08-07T21:03:09.771Z,12.4
2023-08-07T21:06:09.425Z,12.5
2023-08-07T21:09:09.442Z,12.5
2023-08-07T21:12:09.991Z,12.5
2023-08-07T21:15:09.528Z,12.5
2023-08-07T21:18:09.722Z,12.5
2023-08-07T21:21:09.435Z,12.6
2023-08-07T21:24:09.445Z,12.6
2023-08-07T21:27:09.395Z,12.6
2023-08-07T21:30:09.475Z,12.6
2023-08-07T21:33:09.708Z,12.5
2023-08-07T21:36:09.465Z,12.5
2023-08-07T21:39:09.526Z,12.6
2023-08-07T21:42:10.009Z,12.6
2023-08-07T21:45:09.534Z,12.7
2023-08-07T21:48:09.763Z,12.8
2023-08-07T21:51:09.605Z,12.8
2023-08-07T21:54:09.487Z,12.8
2023-08-07T21:57:09.461Z,12.8
2023-08-07T22:00:09.809Z,12.9
2023-08-07T22:03:10.165Z,12.8
2023-08-07T22:06:09.475Z,12.8
2023-08-07T22:09:09.427Z,12.8
2023-08-07T22:12:10.675Z,12.7
2023-08-07T22:15:09.480Z,12.7
2023-08-07T22:18:09.761Z,12.6
2023-08-07T22:21:09.415Z,12.4
2023-08-07T22:24:09.414Z,12.4
2023-08-07T22:27:09.413Z,12.4
2023-08-07T22:30:09.479Z,12.3
2023-08-07T22:33:09.667Z,12.3
2023-08-07T22:36:09.464Z,12.2
2023-08-07T22:39:09.414Z,12.2
2023-08-07T22:42:10.606Z,12.2
2023-08-07T22:45:09.480Z,12.1
2023-08-07T22:48:09.780Z,12.1
2023-08-07T22:51:09.432Z,12.1
2023-08-07T22:54:09.617Z,12.1
2023-08-07T22:57:10.025Z,12.1
2023-08-07T23:00:09.577Z,12.1
2023-08-07T23:03:10.103Z,12.1
2023-08-07T23:06:09.481Z,12.1
2023-08-07T23:09:09.475Z,12
2023-08-07T23:12:10.352Z,11.9
2023-08-07T23:15:09.455Z,11.9
2023-08-07T23:18:09.845Z,11.8
2023-08-07T23:21:09.406Z,11.8
2023-08-07T23:24:09.500Z,11.7
2023-08-07T23:27:09.428Z,11.7
2023-08-07T23:30:09.461Z,11.7
2023-08-07T23:33:09.670Z,11.7
2023-08-07T23:36:09.425Z,11.7
2023-08-07T23:39:09.511Z,11.7
2023-08-07T23:42:10.233Z,11.6
2023-08-07T23:45:09.503Z,11.6
2023-08-07T23:48:09.826Z,11.6
2023-08-07T23:51:09.474Z,11.6
2023-08-07T23:54:09.451Z,11.6
2023-08-07T23:57:09.470Z,11.5
